West Carrollton, Ohio
Current Conditions -  °F | °C
As of 11:53 PM on Sunday 21 Dec 2014 (Local Time) from KMGY Reporting Station
Clear Clear  
Wind Chill: 21°   Ceiling: Unl
Heat Index: 29°   Visibility: 8mi
Dew Point: 24°   Wind: 8mph
Humidity: 82%   Direction: 90°E
Pressure: 30.1"   Gusts: NA
Location:  39.664°N, 84.2415°W
Report Text: KMGY 220453Z AUTO 09007KT 8SM CLR M02/M04 A3010 RMK AO2 SLP202 T10171044 400281072
Loading
Personal Weather Stations






























Interactive Weather Map New forecast layout! Learn more

10-Day Weather Forecast

Advertisements
Track Severe Weather on mobile